Flight Track Log - Related Links

Times and Time Zones

All times are in EDT time to prevent confusion due to time zone crossing. See the N701MD flight status page for this flight to view local times or setup timezone preferences in your user account.

Time Position Orientation Groundspeed Altitude Reporting Facility
EDT Latitude Longitude Course Direction KTS MPH feet Rate Location/Type
Sun 04:49:15 PM 30.7583 -98.7753 28° Northeast 96 110 4,600  Level Houston Center
Sun 04:50:17 PM 30.7914 -98.7536 29° Northeast 134 154 5,200 435 Climbing Houston Center
Sun 04:51:19 PM 30.8225 -98.7336 29° Northeast 130 150 5,500 435 Climbing Houston Center
Sun 04:52:00 PM 30.7773 -98.6821 30° Northeast  Level FlightAware Approximate
Sun 04:52:21 PM 30.8564 -98.7133 27° Northeast 130 150 6,100  Level Houston Center
Sun 04:53:00 PM 30.8132 -98.6596 28° Northeast  Level FlightAware Approximate
Sun 04:53:23 PM 30.8889 -98.6919 29° Northeast 132 152 6,600  Level Houston Center
Sun 04:54:00 PM 30.8491 -98.6372 28° Northeast  Level FlightAware Approximate
Sun 04:54:25 PM 30.9206 -98.6678 33° Northeast 134 154 7,100  Level Houston Center
Sun 04:55:27 PM 30.9592 -98.6372 34° Northeast 141 162 7,000 -48 Descending Houston Center
Sun 04:56:29 PM 30.9936 -98.6081 36° Northeast 146 168 7,000  Level Houston Center
Sun 04:57:32 PM 31.0286 -98.5828 32° Northeast 146 168 7,000  Level Houston Center
Sun 04:58:34 PM 31.0653 -98.5594 29° Northeast 146 168 7,000 48 Level Houston Center
Sun 04:59:36 PM 31.0994 -98.5378 29° Northeast 144 166 7,100  Climbing Houston Center
Sun 05:00:38 PM 31.1339 -98.5158 29° Northeast 141 162 7,000  Descending Houston Center
Sun 05:01:40 PM 31.1694 -98.4917 30° Northeast 143 165 7,100 48 Climbing Houston Center
Sun 05:02:42 PM 31.2094 -98.4639 31° Northeast 143 165 7,100  Level Houston Center
Sun 05:03:44 PM 31.2450 -98.4422 28° Northeast 143 165 7,100  Level Houston Center
Sun 05:04:46 PM 31.2803 -98.4175 31° Northeast 144 166 7,100  Level Houston Center
Sun 05:05:48 PM 31.3167 -98.3931 30° Northeast 146 168 7,100  Level Houston Center
Sun 05:06:33 PM 31.3411 -98.3742 33° Northeast 148 170 7,100  Level Fort Worth Center
Sun 05:07:28 PM 31.3747 -98.3525 29° Northeast 146 168 7,100 -52 Level Fort Worth Center
Sun 05:08:28 PM 31.4083 -98.3333 26° Northeast 142 163 7,000  Descending Fort Worth Center
Sun 05:09:29 PM 31.4461 -98.3069 31° Northeast 146 168 7,100 50 Climbing Fort Worth Center
Sun 05:10:29 PM 31.4794 -98.2853 29° Northeast 147 169 7,100 -50 Level Fort Worth Center
Sun 05:11:30 PM 31.5194 -98.2589 29° Northeast 154 177 7,000 -49 Descending Fort Worth Center
Sun 05:12:31 PM 31.5572 -98.2325 31° Northeast 151 174 7,000  Level Fort Worth Center
Sun 05:13:37 PM 31.5908 -98.2083 31° Northeast 147 169 7,000  Level Fort Worth Center
Sun 05:14:37 PM 31.6264 -98.1819 32° Northeast 161 185 7,000  Level Fort Worth Center
Sun 05:15:37 PM 31.6619 -98.1578 30° Northeast 161 185 7,000  Level Fort Worth Center
Sun 05:16:37 PM 31.6956 -98.1336 31° Northeast 150 173 7,000  Level Fort Worth Center
Sun 05:17:37 PM 31.7333 -98.1094 29° Northeast 138 159 7,000  Level Fort Worth Center
Sun 05:18:37 PM 31.7689 -98.0903 25° Northeast 138 159 7,000  Level Fort Worth Center
Sun 05:19:37 PM 31.8044 -98.0733 22° Northeast 133 153 7,000  Level Fort Worth Center
Sun 05:20:37 PM 31.8422 -98.0589 18° North 126 145 7,000  Level Fort Worth Center
Sun 05:21:37 PM 31.8778 -98.0372 27° Northeast 142 163 7,000  Level Fort Worth Center
Sun 05:22:37 PM 31.9111 -98.0228 20° North 133 153 7,000 50 Level Fort Worth Center
Sun 05:23:37 PM 31.9467 -97.9986 30° Northeast 133 153 7,100  Climbing Fort Worth Center
Sun 05:24:37 PM 31.9803 -97.9842 20° North 133 153 7,000 -150 Descending Fort Worth Center
Sun 05:25:37 PM 32.0158 -97.9647 25° Northeast 133 153 6,800 -350 Descending Fort Worth Center
Sun 05:26:37 PM 32.0556 -97.9403 28° Northeast 138 159 6,300 -400 Descending Fort Worth Center
Sun 05:27:37 PM 32.0933 -97.9211 23° Northeast 138 159 6,000 -500 Descending Fort Worth Center
Sun 05:28:37 PM 32.1372 -97.9089 13° North 138 159 5,300 -450 Descending Fort Worth Center
Sun 05:29:37 PM 32.1789 -97.9167 351° North 152 175 5,100 -100 Descending Fort Worth Center
Sun 05:30:37 PM 32.2247 -97.9192 357° North 152 175 5,100  Level Fort Worth Center
Sun 05:31:37 PM 32.2625 -97.9219 356° North 152 175 5,100 -50 Level Fort Worth Center
Sun 05:32:37 PM 32.3042 -97.9247 357° North 142 163 5,000 -50 Descending Fort Worth Center
Sun 05:33:37 PM 32.3397 -97.9272 357° North 142 163 5,000 50 Level Fort Worth Center
Sun 05:34:37 PM 32.3689 -97.8956 43° Northeast 121 139 5,100  Climbing Fort Worth Center
Sun 05:35:37 PM 32.3858 -97.8561 63° Northeast 137 158 5,000 -50 Descending Fort Worth Center
Sun 05:36:37 PM 32.4047 -97.8144 62° Northeast 143 165 5,000 -200 Level Fort Worth Center
Sun 05:37:37 PM 32.4319 -97.7753 51° Northeast 143 165 4,600 -500 Descending Fort Worth Center
Sun 05:38:37 PM 32.4633 -97.7286 51° Northeast 153 176 4,000 -300 Descending Fort Worth Center
Sun 05:39:37 PM 32.4928 -97.6992 40° Northeast 153 176 4,000 -200 Level Fort Worth Center
Sun 05:40:37 PM 32.5261 -97.6647 41° Northeast 147 169 3,600 -400 Descending Fort Worth Center
Sun 05:41:37 PM 32.5597 -97.6328 39° Northeast 153 176 3,200 -300 Descending Fort Worth Center
Sun 05:42:37 PM 32.5953 -97.5958 41° Northeast 159 183 3,000 -350 Descending Fort Worth Center
Sun 05:43:37 PM 32.6225 -97.5639 45° Northeast 159 183 2,500 -250 Descending Fort Worth Center
Sun 05:44:37 PM 32.6558 -97.5269 43° Northeast 154 177 2,500 -50 Level Fort Worth Center
Sun 05:45:37 PM 32.6789 -97.4925 52° Northeast 143 165 2,400 -150 Descending Fort Worth Center
Sun 05:46:37 PM 32.7061 -97.4506 52° Northeast 138 159 2,200 -250 Descending Fort Worth Center
Sun 05:47:37 PM 32.7311 -97.4183 47° Northeast 138 159 1,900 -310 Descending Fort Worth Center
Sun 05:49:12 PM 32.7833 -97.3500 48° Northeast 156 180 1,400 -316 Descending Dallas / Fort Worth TRACON
Sun 05:51:00 PM 32.8167 -97.3500 40° Northeast  Level FlightAware Approximate
Sun 05:58:00 PM 32.8198 -97.3624 40° Northeast  Level Estimated

Login

Don't have an account? Register now (free) for customized features, flight alerts, and more!